Time;durP1;ratioP1;P1;durP2;ratioP2;P2;SDS_P1;SDS_P2;PMS_P1;PMS_P2;Temp;Humidity;BMP_temperature;BMP_pressure;BME280_temperature;BME280_humidity;BME280_pressure;Samples;Min_cycle;Max_cycle;Signal;HPM_P1;HPM_P2
2022/04/29 00:02:21;;;;;;;2.57;2.37;;;14.70;24.40;;;;;;5062749;28;20626;-77
2022/04/29 00:04:51;;;;;;;3.57;3.00;;;14.70;25.30;;;;;;5060894;28;20455;-77
2022/04/29 00:07:20;;;;;;;3.23;2.77;;;14.70;25.40;;;;;;5058879;28;20454;-78
2022/04/29 00:09:48;;;;;;;3.40;3.00;;;14.70;26.10;;;;;;5058185;28;21012;-78
2022/04/29 00:12:16;;;;;;;3.53;3.30;;;14.60;26.20;;;;;;5060487;28;20457;-77
2022/04/29 00:14:44;;;;;;;3.10;2.80;;;14.50;26.30;;;;;;5060451;28;20574;-77
2022/04/29 00:17:12;;;;;;;3.07;2.77;;;14.50;26.20;;;;;;5059473;28;20446;-77
2022/04/29 00:19:43;;;;;;;3.47;2.77;;;14.50;25.10;;;;;;5060970;28;20539;-76
2022/04/29 00:22:11;;;;;;;2.87;2.67;;;14.50;24.90;;;;;;5058832;28;20477;-77
2022/04/29 00:24:39;;;;;;;4.47;4.17;;;14.40;25.10;;;;;;5056187;28;20466;-77
2022/04/29 00:27:08;;;;;;;3.07;2.87;;;14.30;25.30;;;;;;5060318;28;20525;-78
2022/04/29 00:29:36;;;;;;;3.30;3.03;;;14.30;25.60;;;;;;5059723;28;20513;-77
2022/04/29 00:32:05;;;;;;;3.83;3.50;;;14.30;25.80;;;;;;5060607;28;20529;-78
2022/04/29 00:34:34;;;;;;;3.23;2.93;;;14.30;23.90;;;;;;5058803;28;20836;-77
2022/04/29 00:37:04;;;;;;;3.40;3.10;;;14.30;27.00;;;;;;5061289;28;20455;-77
2022/04/29 00:39:32;;;;;;;4.70;4.13;;;14.20;24.50;;;;;;5057605;28;21265;-76
2022/04/29 00:42:00;;;;;;;3.53;3.03;;;14.20;25.50;;;;;;5063251;28;20527;-78
2022/04/29 00:44:28;;;;;;;3.33;3.10;;;14.20;25.80;;;;;;5065001;28;20468;-78
2022/04/29 00:46:56;;;;;;;3.10;2.90;;;14.30;26.80;;;;;;5066819;28;21192;-77
2022/04/29 00:49:24;;;;;;;3.83;3.43;;;14.20;27.00;;;;;;5065612;28;20480;-78
2022/04/29 00:51:52;;;;;;;4.10;3.60;;;14.20;26.30;;;;;;5067170;28;20460;-78
2022/04/29 00:54:26;;;;;;;4.50;3.10;;;14.10;26.80;;;;;;5062294;28;20456;-76
2022/04/29 00:56:55;;;;;;;3.93;3.53;;;14.10;26.90;;;;;;5066490;28;20456;-77
2022/04/29 00:59:28;;;;;;;3.70;3.40;;;14.20;27.50;;;;;;5063585;28;20477;-77
2022/04/29 01:01:59;;;;;;;4.97;3.67;;;14.20;28.70;;;;;;5065089;28;20455;-77
2022/04/29 01:04:32;;;;;;;3.10;2.80;;;14.10;28.20;;;;;;5059829;28;20485;-77
2022/04/29 01:07:00;;;;;;;4.40;3.47;;;14.10;28.90;;;;;;5066911;28;20464;-77
2022/04/29 01:09:30;;;;;;;3.30;3.00;;;14.10;29.60;;;;;;5064606;28;20552;-77
2022/04/29 01:11:58;;;;;;;4.40;3.87;;;14.10;28.70;;;;;;5066777;28;20450;-77
2022/04/29 01:14:26;;;;;;;3.33;2.70;;;14.00;28.20;;;;;;5065433;28;20476;-77
2022/04/29 01:16:57;;;;;;;3.43;3.13;;;13.90;41.00;;;;;;5067695;28;20458;-77
2022/04/29 01:19:25;;;;;;;3.83;3.00;;;13.80;27.20;;;;;;5066431;28;20487;-77
2022/04/29 01:21:53;;;;;;;3.60;3.10;;;13.70;28.10;;;;;;5065316;28;20463;-77
2022/04/29 01:24:23;;;;;;;3.03;2.83;;;13.70;28.30;;;;;;5062962;28;20524;-77
2022/04/29 01:26:51;;;;;;;3.80;3.23;;;13.80;29.50;;;;;;5066594;28;20463;-77
2022/04/29 01:29:22;;;;;;;5.83;4.00;;;13.70;29.00;;;;;;5067948;28;20473;-78
2022/04/29 01:31:52;;;;;;;3.93;3.40;;;13.80;29.00;;;;;;5063573;28;20450;-79
2022/04/29 01:34:20;;;;;;;3.80;3.50;;;13.80;28.70;;;;;;5063608;28;20862;-77
2022/04/29 01:36:49;;;;;;;3.97;3.53;;;13.80;43.90;;;;;;5067535;28;20450;-77
2022/04/29 01:39:17;;;;;;;3.30;3.00;;;13.70;29.70;;;;;;5066136;28;20490;-77
2022/04/29 01:41:46;;;;;;;2.73;2.33;;;13.60;29.20;;;;;;5066183;28;21237;-78
2022/04/29 01:44:15;;;;;;;3.50;3.20;;;13.50;28.80;;;;;;5065839;28;21338;-78
2022/04/29 01:46:43;;;;;;;3.60;3.30;;;13.60;29.60;;;;;;5064062;28;20464;-77
2022/04/29 01:49:11;;;;;;;3.57;3.10;;;13.60;28.90;;;;;;5060815;28;20496;-78
2022/04/29 01:51:39;;;;;;;4.03;3.20;;;13.60;29.10;;;;;;5065225;28;20459;-77
2022/04/29 01:54:10;;;;;;;3.60;3.17;;;13.60;29.60;;;;;;5059601;28;20451;-77
2022/04/29 01:56:40;;;;;;;3.80;3.47;;;13.50;30.00;;;;;;5063734;28;20768;-78
2022/04/29 01:59:09;;;;;;;3.43;3.10;;;13.50;28.40;;;;;;5062330;28;20871;-76
2022/04/29 02:01:38;;;;;;;4.03;3.03;;;13.50;30.80;;;;;;5063260;28;20453;-79
2022/04/29 02:04:09;;;;;;;4.03;3.57;;;13.50;29.50;;;;;;5063273;28;20479;-78
2022/04/29 02:06:38;;;;;;;7.60;3.33;;;13.50;30.70;;;;;;5062648;28;20468;-78
2022/04/29 02:09:06;;;;;;;4.90;3.80;;;13.50;30.20;;;;;;5062445;28;20812;-78
2022/04/29 02:11:35;;;;;;;3.67;3.37;;;13.50;30.20;;;;;;5064817;28;20459;-78
2022/04/29 02:14:03;;;;;;;3.70;3.37;;;13.30;30.50;;;;;;5060327;28;20508;-77
2022/04/29 02:16:33;;;;;;;3.87;3.50;;;12.80;29.70;;;;;;5056434;28;20455;-76
2022/04/29 02:19:01;;;;;;;3.50;3.17;;;13.20;30.70;;;;;;5061322;28;20516;-78
2022/04/29 02:21:29;;;;;;;4.27;2.83;;;13.30;30.80;;;;;;5059233;28;20838;-76
2022/04/29 02:23:57;;;;;;;6.53;4.30;;;13.30;30.60;;;;;;5064117;28;20867;-78
2022/04/29 02:26:25;;;;;;;3.30;3.00;;;13.30;31.30;;;;;;5061283;28;20455;-77
2022/04/29 02:28:53;;;;;;;3.83;3.53;;;13.30;30.00;;;;;;5063754;28;20454;-77
2022/04/29 02:31:22;;;;;;;4.27;3.10;;;13.10;30.60;;;;;;5065232;28;20458;-76
2022/04/29 02:33:51;;;;;;;4.10;3.10;;;13.20;30.00;;;;;;5062267;28;20463;-77
2022/04/29 02:36:20;;;;;;;3.20;2.90;;;13.10;31.40;;;;;;5063258;28;20462;-78
2022/04/29 02:38:48;;;;;;;4.20;3.33;;;13.30;32.20;;;;;;5061464;28;20809;-77
2022/04/29 02:41:17;;;;;;;4.50;3.87;;;13.10;31.00;;;;;;5062307;28;20496;-78
2022/04/29 02:43:45;;;;;;;3.80;3.37;;;13.00;32.60;;;;;;5062103;28;20474;-77
2022/04/29 02:46:13;;;;;;;3.60;3.17;;;13.10;33.70;;;;;;5060616;28;20463;-77
2022/04/29 02:48:41;;;;;;;4.07;3.67;;;13.00;34.90;;;;;;5062354;28;21001;-77
2022/04/29 02:51:10;;;;;;;5.30;3.47;;;12.90;33.10;;;;;;5062295;28;20502;-77
2022/04/29 02:53:39;;;;;;;6.27;2.77;;;13.00;35.20;;;;;;5059314;28;20947;-77
2022/04/29 02:56:07;;;;;;;3.97;3.53;;;13.00;34.50;;;;;;5060906;28;20469;-77
2022/04/29 02:58:35;;;;;;;3.40;2.90;;;13.00;35.70;;;;;;5060376;28;20467;-77
2022/04/29 03:01:04;;;;;;;3.57;3.00;;;13.00;34.70;;;;;;5063545;28;21228;-78
2022/04/29 03:03:32;;;;;;;3.77;3.20;;;13.00;33.40;;;;;;5059187;28;20455;-77
2022/04/29 03:06:01;;;;;;;3.83;3.43;;;13.00;34.00;;;;;;5061714;28;20455;-77
2022/04/29 03:08:30;;;;;;;2.90;2.60;;;13.00;34.00;;;;;;5058085;28;20459;-78
2022/04/29 03:10:59;;;;;;;3.60;3.30;;;12.90;33.00;;;;;;5061875;28;20474;-76
2022/04/29 03:13:27;;;;;;;4.40;3.60;;;12.70;34.10;;;;;;5060002;28;20451;-75
2022/04/29 03:15:56;;;;;;;3.50;3.20;;;12.70;33.60;;;;;;5074723;28;21039;-77
2022/04/29 03:18:24;;;;;;;4.83;3.20;;;12.70;33.70;;;;;;5062585;28;20817;-77
2022/04/29 03:20:56;;;;;;;3.90;3.20;;;12.70;34.10;;;;;;5061802;28;20482;-77
2022/04/29 03:23:25;;;;;;;4.23;3.93;;;12.70;33.90;;;;;;5060219;28;20462;-78
2022/04/29 03:25:55;;;;;;;5.50;3.67;;;13.00;35.90;;;;;;5056184;28;21377;-77
2022/04/29 03:28:23;;;;;;;3.63;3.33;;;12.70;35.70;;;;;;5059956;28;20987;-77
2022/04/29 03:30:51;;;;;;;4.43;3.73;;;12.40;36.30;;;;;;5060757;28;21059;-78
2022/04/29 03:33:19;;;;;;;5.77;3.00;;;12.70;37.60;;;;;;5057935;28;20895;-78
2022/04/29 03:35:50;;;;;;;4.07;3.70;;;12.60;36.80;;;;;;5059456;28;20478;-77
2022/04/29 03:38:24;;;;;;;3.83;3.50;;;12.50;34.80;;;;;;5059476;28;20459;-76
2022/04/29 03:40:54;;;;;;;3.87;3.57;;;12.40;34.60;;;;;;5062606;28;20474;-77
2022/04/29 03:43:23;;;;;;;5.00;4.50;;;12.40;33.70;;;;;;5061602;28;20445;-78
2022/04/29 03:45:51;;;;;;;3.80;3.30;;;12.40;36.40;;;;;;5059222;28;20525;-76
2022/04/29 03:48:20;;;;;;;3.60;3.30;;;12.50;36.80;;;;;;5062284;28;20451;-76
2022/04/29 03:50:48;;;;;;;4.43;4.03;;;12.50;36.40;;;;;;5062574;28;20494;-78
2022/04/29 03:53:16;;;;;;;3.93;3.60;;;12.50;37.50;;;;;;5058467;28;20536;-76
2022/04/29 03:55:44;;;;;;;4.03;3.77;;;12.50;37.70;;;;;;5059072;28;21339;-78
2022/04/29 03:58:14;;;;;;;4.90;4.37;;;12.50;37.20;;;;;;5063157;28;20447;-77
2022/04/29 04:00:42;;;;;;;4.20;3.40;;;12.50;37.90;;;;;;5056326;28;21018;-78
2022/04/29 04:03:10;;;;;;;3.47;3.23;;;12.50;38.50;;;;;;5058078;28;20970;-78
2022/04/29 04:06:49;;;;;;;4.03;3.70;;;12.50;39.50;;;;;;5056733;28;20478;-77
2022/04/29 04:08:27;;;;;;;4.50;4.10;;;12.50;39.10;;;;;;5062381;28;20465;-78
2022/04/29 04:10:55;;;;;;;5.13;4.60;;;12.40;40.10;;;;;;5067894;28;20528;-78
2022/04/29 04:13:24;;;;;;;5.40;4.43;;;12.40;39.30;;;;;;5055978;28;20447;-77
2022/04/29 04:15:53;;;;;;;4.47;4.07;;;12.30;39.00;;;;;;5060857;28;21973;-76
2022/04/29 04:18:21;;;;;;;4.07;3.70;;;12.30;40.20;;;;;;5060369;28;20442;-77
2022/04/29 04:20:49;;;;;;;5.70;4.20;;;12.40;40.20;;;;;;5054815;28;20474;-78
2022/04/29 04:23:17;;;;;;;4.07;3.67;;;12.30;39.50;;;;;;5055017;28;20466;-75
2022/04/29 04:25:45;;;;;;;5.00;3.83;;;12.50;41.30;;;;;;5051769;28;20484;-78
2022/04/29 04:28:14;;;;;;;4.03;3.40;;;12.30;41.30;;;;;;5062190;28;20469;-77
2022/04/29 04:30:43;;;;;;;4.10;3.67;;;12.30;41.50;;;;;;5058651;28;20476;-77
2022/04/29 04:33:11;;;;;;;4.43;4.13;;;12.30;42.20;;;;;;5057499;28;20792;-78
2022/04/29 04:35:40;;;;;;;4.30;2.70;;;12.40;42.30;;;;;;5055198;28;20501;-79
2022/04/29 04:38:08;;;;;;;3.97;3.57;;;12.30;43.60;;;;;;5060333;28;20788;-78
2022/04/29 04:40:36;;;;;;;3.63;3.30;;;12.30;43.50;;;;;;5056676;28;20463;-77
2022/04/29 04:43:04;;;;;;;5.03;3.10;;;12.40;58.60;;;;;;5060875;28;20438;-77
2022/04/29 04:45:32;;;;;;;4.40;3.70;;;12.40;44.50;;;;;;5057763;28;20502;-78
2022/04/29 04:48:02;;;;;;;4.07;3.70;;;12.40;46.50;;;;;;5058183;28;20465;-77
2022/04/29 04:50:30;;;;;;;4.00;3.70;;;12.30;45.20;;;;;;5060969;28;20474;-78
2022/04/29 04:52:58;;;;;;;3.97;3.63;;;12.70;45.60;;;;;;5057972;28;20462;-77
2022/04/29 04:55:26;;;;;;;3.73;3.20;;;12.40;45.70;;;;;;5057710;28;20470;-78
2022/04/29 04:57:55;;;;;;;4.00;3.70;;;12.30;48.30;;;;;;5061608;28;20458;-77
2022/04/29 05:00:23;;;;;;;3.30;2.80;;;12.30;49.50;;;;;;5058742;28;20993;-77
2022/04/29 05:02:51;;;;;;;4.60;4.00;;;12.40;51.50;;;;;;5062145;28;20470;-77
2022/04/29 05:05:21;;;;;;;4.20;3.80;;;12.40;50.30;;;;;;5053778;28;20569;-77
2022/04/29 05:07:49;;;;;;;4.63;4.23;;;12.50;52.40;;;;;;5058381;28;20461;-77
2022/04/29 05:10:18;;;;;;;5.27;3.60;;;12.50;54.10;;;;;;5055738;28;21057;-77
2022/04/29 05:12:47;;;;;;;4.00;3.40;;;12.50;54.40;;;;;;5064154;28;20449;-77
2022/04/29 05:15:15;;;;;;;4.03;3.63;;;12.50;53.30;;;;;;5059419;28;20484;-78
2022/04/29 05:17:44;;;;;;;4.27;3.20;;;12.50;54.90;;;;;;5060621;28;20488;-77
2022/04/29 05:20:15;;;;;;;4.17;3.77;;;12.50;57.40;;;;;;5061630;28;21245;-76
2022/04/29 05:22:47;;;;;;;4.63;3.70;;;12.50;57.50;;;;;;5065464;28;21027;-77
2022/04/29 05:25:16;;;;;;;6.53;3.63;;;12.60;57.40;;;;;;5058523;28;20477;-77
2022/04/29 05:27:44;;;;;;;6.10;4.03;;;12.60;57.90;;;;;;5062530;28;20466;-76
2022/04/29 05:30:12;;;;;;;6.63;4.23;;;13.00;58.20;;;;;;5066551;28;20470;-76
2022/04/29 05:32:40;;;;;;;5.77;4.50;;;13.00;57.70;;;;;;5069519;28;20922;-77
2022/04/29 05:35:10;;;;;;;4.47;3.60;;;12.80;59.90;;;;;;5055869;28;20848;-78
2022/04/29 05:37:40;;;;;;;8.40;4.27;;;12.80;58.90;;;;;;5082174;28;21029;-77
2022/04/29 05:42:56;;;;;;;5.93;4.17;;;12.80;59.40;;;;;;5069666;28;20505;-77
2022/04/29 05:45:24;;;;;;;4.50;3.80;;;12.90;61.20;;;;;;5064321;28;21013;-77
2022/04/29 05:47:52;;;;;;;5.60;5.10;;;12.90;62.00;;;;;;5061009;28;20898;-77
2022/04/29 05:50:21;;;;;;;4.27;3.83;;;12.90;61.50;;;;;;5059060;28;20470;-78
2022/04/29 05:52:49;;;;;;;5.00;4.60;;;12.90;61.40;;;;;;5069843;28;20459;-77
2022/04/29 05:55:18;;;;;;;5.17;4.77;;;13.00;63.90;;;;;;5063403;28;20451;-77
2022/04/29 05:58:07;;;;;;;5.73;4.30;;;13.00;61.30;;;;;;5069040;28;20452;-76
2022/04/29 06:00:35;;;;;;;5.00;4.50;;;13.10;64.20;;;;;;5063743;28;20532;-77
2022/04/29 06:03:04;;;;;;;6.70;4.60;;;13.20;68.90;;;;;;5062163;28;20468;-78
2022/04/29 06:05:32;;;;;;;5.70;5.10;;;13.30;71.30;;;;;;5057710;28;20480;-76
2022/04/29 06:08:00;;;;;;;5.37;4.97;;;13.40;77.10;;;;;;5063017;28;20459;-77
2022/04/29 06:10:30;;;;;;;5.27;4.70;;;13.60;77.50;;;;;;5059979;28;20527;-77
2022/04/29 06:12:58;;;;;;;6.37;4.80;;;13.70;77.00;;;;;;5064058;28;20446;-77
2022/04/29 06:15:26;;;;;;;4.90;4.50;;;13.80;75.00;;;;;;5062258;28;20467;-77
2022/04/29 06:17:54;;;;;;;4.90;4.40;;;13.90;70.40;;;;;;5058373;28;20977;-77
2022/04/29 06:20:23;;;;;;;4.50;4.10;;;13.90;71.10;;;;;;5060918;28;20481;-77
2022/04/29 06:22:51;;;;;;;5.73;4.77;;;14.00;71.50;;;;;;5061382;28;20523;-77
2022/04/29 06:25:20;;;;;;;4.07;3.77;;;14.00;70.50;;;;;;5061395;28;20445;-77
2022/04/29 06:27:50;;;;;;;5.63;4.30;;;14.10;74.50;;;;;;5051002;28;20555;-77
2022/04/29 06:30:18;;;;;;;5.37;4.60;;;14.20;77.60;;;;;;5059502;28;20529;-77
2022/04/29 06:33:08;;;;;;;4.40;4.00;;;14.40;78.20;;;;;;5066700;28;20503;-76
2022/04/29 06:35:41;;;;;;;5.10;4.60;;;14.80;81.10;;;;;;5062957;28;20461;-77
2022/04/29 06:38:10;;;;;;;6.10;4.80;;;14.70;79.80;;;;;;5063066;28;20449;-78
2022/04/29 06:40:38;;;;;;;5.10;4.63;;;14.50;81.70;;;;;;5056285;28;21004;-77
2022/04/29 06:43:08;;;;;;;4.80;4.40;;;15.00;79.80;;;;;;5063505;28;20459;-77
2022/04/29 06:45:36;;;;;;;5.30;4.80;;;15.10;82.90;;;;;;5057892;28;20455;-78
2022/04/29 06:48:04;;;;;;;4.57;4.10;;;15.30;85.50;;;;;;5060384;28;20468;-78
2022/04/29 06:50:33;;;;;;;5.00;4.30;;;15.40;79.90;;;;;;5058811;28;20482;-77
2022/04/29 06:53:01;;;;;;;6.80;4.23;;;15.60;83.40;;;;;;5058036;28;21017;-78
2022/04/29 06:55:30;;;;;;;6.30;5.70;;;15.70;80.70;;;;;;5057808;28;20451;-78
2022/04/29 06:57:58;;;;;;;5.90;4.33;;;15.80;78.90;;;;;;5063040;28;20475;-78
2022/04/29 07:00:27;;;;;;;5.27;4.10;;;16.00;84.40;;;;;;5060166;28;20470;-77
2022/04/29 07:02:56;;;;;;;5.83;4.80;;;16.10;78.30;;;;;;5061955;28;20449;-78
2022/04/29 07:05:25;;;;;;;4.70;3.90;;;16.30;78.50;;;;;;5060458;28;20447;-78
2022/04/29 07:07:53;;;;;;;4.80;4.40;;;16.40;77.40;;;;;;5059316;28;21002;-78
2022/04/29 07:10:21;;;;;;;5.00;4.03;;;16.40;78.40;;;;;;5057853;28;20460;-78
2022/04/29 07:12:49;;;;;;;4.17;3.77;;;16.50;76.60;;;;;;5059471;28;20463;-77
2022/04/29 07:15:17;;;;;;;4.67;3.73;;;16.60;68.50;;;;;;5059362;28;20448;-78
2022/04/29 07:17:47;;;;;;;4.87;3.83;;;16.60;62.40;;;;;;5062428;28;20468;-78
2022/04/29 07:20:16;;;;;;;6.13;3.23;;;16.70;75.80;;;;;;5061102;28;20862;-78
2022/04/29 07:22:44;;;;;;;5.03;4.00;;;16.80;56.00;;;;;;5060863;28;20448;-77
2022/04/29 07:25:14;;;;;;;2.80;2.60;;;16.90;55.00;;;;;;5064869;28;20453;-77
2022/04/29 07:27:42;;;;;;;3.60;3.10;;;16.90;56.50;;;;;;5062910;28;20554;-78
2022/04/29 07:30:11;;;;;;;3.80;3.30;;;17.00;53.90;;;;;;5062196;28;20481;-77
2022/04/29 07:32:40;;;;;;;5.33;4.03;;;17.00;52.80;;;;;;5061458;28;20442;-78
2022/04/29 07:43:27;;;;;;;4.03;3.40;;;17.10;47.70;;;;;;5060178;28;20461;-78
2022/04/29 07:45:55;;;;;;;3.93;3.43;;;17.20;49.30;;;;;;5060688;28;20441;-78
2022/04/29 07:48:24;;;;;;;3.57;3.20;;;17.30;52.10;;;;;;5062513;28;20476;-77
2022/04/29 07:50:53;;;;;;;4.00;3.10;;;17.30;47.50;;;;;;5059757;28;20544;-77
2022/04/29 07:53:21;;;;;;;5.20;3.70;;;17.30;48.10;;;;;;5056209;28;20961;-78
2022/04/29 07:55:50;;;;;;;6.80;4.20;;;17.30;47.80;;;;;;5057249;28;21197;-78
2022/04/29 07:58:18;;;;;;;5.60;3.23;;;17.30;41.80;;;;;;5061716;28;20695;-78
2022/04/29 08:00:46;;;;;;;4.47;3.50;;;17.20;41.00;;;;;;5056955;28;20469;-78
2022/04/29 08:03:33;;;;;;;4.40;3.27;;;17.30;40.40;;;;;;5058904;28;20460;-78
2022/04/29 08:06:04;;;;;;;4.30;3.73;;;17.20;38.30;;;;;;5055429;28;20544;-78
2022/04/29 08:08:32;;;;;;;3.77;2.97;;;17.20;37.30;;;;;;5061156;28;20458;-77
2022/04/29 08:11:00;;;;;;;4.97;3.57;;;17.20;37.20;;;;;;5067430;28;20478;-78
2022/04/29 08:13:29;;;;;;;3.30;2.90;;;17.30;36.10;;;;;;5052397;28;20461;-78
2022/04/29 08:15:58;;;;;;;4.60;3.83;;;17.40;38.30;;;;;;5055305;28;20457;-77
2022/04/29 08:18:28;;;;;;;4.13;3.20;;;17.40;35.80;;;;;;5052999;28;20526;-78
2022/04/29 08:20:57;;;;;;;3.83;3.27;;;17.40;36.30;;;;;;5060001;28;20730;-77
2022/04/29 08:23:27;;;;;;;3.53;2.80;;;17.40;36.80;;;;;;5051176;28;20465;-78
2022/04/29 08:25:55;;;;;;;4.03;2.80;;;17.40;36.20;;;;;;5055963;28;20754;-78
2022/04/29 08:28:25;;;;;;;3.40;3.03;;;17.50;36.00;;;;;;5058645;28;20488;-77
2022/04/29 08:30:54;;;;;;;4.20;2.93;;;17.50;35.00;;;;;;5058143;28;20574;-77
2022/04/29 08:33:24;;;;;;;4.43;3.00;;;17.40;35.00;;;;;;5058506;28;20440;-78
2022/04/29 08:35:53;;;;;;;3.60;3.03;;;17.50;35.50;;;;;;5053851;28;20466;-77
2022/04/29 08:38:22;;;;;;;3.83;2.90;;;17.50;35.80;;;;;;5052539;28;20469;-78
2022/04/29 08:40:51;;;;;;;3.60;2.87;;;17.60;34.10;;;;;;5051941;28;20529;-77
2022/04/29 08:43:21;;;;;;;3.00;2.80;;;17.60;34.60;;;;;;5055017;28;20473;-78
2022/04/29 08:45:50;;;;;;;2.93;2.20;;;17.70;37.40;;;;;;5057398;28;20462;-78
2022/04/29 08:48:19;;;;;;;4.47;2.83;;;17.80;34.90;;;;;;5058800;28;20489;-77
2022/04/29 08:50:48;;;;;;;3.33;2.93;;;17.90;37.50;;;;;;5053875;28;20964;-78
2022/04/29 08:53:17;;;;;;;5.07;2.80;;;17.90;38.60;;;;;;5058140;28;20462;-77
2022/04/29 08:58:38;;;;;;;3.23;2.13;;;17.80;30.70;;;;;;5060159;28;20451;-78
2022/04/29 09:01:09;;;;;;;2.87;2.57;;;17.90;32.90;;;;;;5059161;28;20476;-78
2022/04/29 09:03:39;;;;;;;3.53;3.23;;;17.90;30.40;;;;;;5055762;28;20464;-77
2022/04/29 09:06:07;;;;;;;3.33;2.43;;;17.80;28.60;;;;;;5063740;28;20445;-78
2022/04/29 09:08:40;;;;;;;2.47;2.27;;;17.90;28.60;;;;;;5063177;28;20564;-77
2022/04/29 09:11:09;;;;;;;3.43;3.13;;;17.80;27.10;;;;;;5066600;28;20465;-78
2022/04/29 09:13:40;;;;;;;3.20;2.53;;;17.90;25.80;;;;;;5065455;28;20450;-77
2022/04/29 09:16:11;;;;;;;3.17;2.97;;;17.80;26.00;;;;;;5065176;28;21339;-77
2022/04/29 09:18:41;;;;;;;2.80;2.60;;;18.00;28.20;;;;;;5060069;28;20485;-77
2022/04/29 09:21:11;;;;;;;3.33;2.70;;;18.10;34.80;;;;;;5062387;28;20466;-78
2022/04/29 09:23:42;;;;;;;2.40;2.20;;;18.20;29.50;;;;;;5066684;28;20529;-77
2022/04/29 09:26:20;;;;;;;3.40;3.10;;;18.30;30.30;;;;;;5063710;28;20462;-78
2022/04/29 09:28:50;;;;;;;2.10;1.90;;;18.40;29.80;;;;;;5066237;28;20486;-79
2022/04/29 09:31:18;;;;;;;2.80;2.60;;;18.30;31.00;;;;;;5066639;28;20461;-78
2022/04/29 09:34:06;;;;;;;3.10;2.90;;;18.30;32.10;;;;;;5058777;28;20500;-77
2022/04/29 09:36:34;;;;;;;3.13;2.77;;;18.30;31.10;;;;;;5059956;28;20512;-78
2022/04/29 09:41:55;;;;;;;4.33;3.30;;;18.30;30.60;;;;;;5061725;28;20454;-77
2022/04/29 09:44:29;;;;;;;2.90;2.63;;;18.40;31.50;;;;;;5056286;28;20458;-78
2022/04/29 09:47:09;;;;;;;5.20;3.33;;;18.50;33.30;;;;;;5053967;28;20442;-78
2022/04/29 09:49:38;;;;;;;3.73;2.20;;;18.50;30.40;;;;;;5060176;28;20527;-77
2022/04/29 09:52:07;;;;;;;2.33;2.13;;;18.50;31.10;;;;;;5057291;28;20450;-78
2022/04/29 09:54:37;;;;;;;2.00;1.80;;;18.60;29.30;;;;;;5060163;28;21290;-78
2022/04/29 09:57:09;;;;;;;2.93;2.30;;;18.50;30.30;;;;;;5057787;28;20450;-78
2022/04/29 09:59:41;;;;;;;4.47;2.63;;;18.50;31.00;;;;;;5051005;28;20528;-77
2022/04/29 10:02:11;;;;;;;2.97;2.67;;;18.50;29.50;;;;;;5055131;28;20489;-77
2022/04/29 10:04:41;;;;;;;3.67;2.70;;;18.50;29.30;;;;;;5061725;28;20469;-78
2022/04/29 10:07:12;;;;;;;4.50;2.37;;;18.40;28.20;;;;;;5061000;28;20832;-76
2022/04/29 10:09:41;;;;;;;2.63;2.43;;;18.40;27.60;;;;;;5057682;28;20567;-77
2022/04/29 10:12:13;;;;;;;3.40;2.00;;;18.60;30.10;;;;;;5055404;28;20444;-78
2022/04/29 10:14:44;;;;;;;2.00;1.80;;;18.70;31.40;;;;;;5058636;28;20447;-76
2022/04/29 10:22:50;;;;;;;3.40;2.47;;;18.60;27.90;;;;;;5070824;28;20520;-78
2022/04/29 10:25:21;;;;;;;2.50;2.17;;;18.50;26.60;;;;;;5055433;28;20443;-77
2022/04/29 10:27:50;;;;;;;6.13;3.00;;;18.50;43.30;;;;;;5058139;28;20475;-78
2022/04/29 10:30:28;;;;;;;2.80;2.30;;;18.60;30.00;;;;;;5056882;28;21088;-77
2022/04/29 10:33:07;;;;;;;4.47;2.90;;;18.60;27.90;;;;;;5058453;28;20895;-78
2022/04/29 10:35:57;;;;;;;3.03;2.20;;;18.50;27.90;;;;;;5059743;28;20461;-77
2022/04/29 10:38:27;;;;;;;2.93;2.20;;;18.50;28.00;;;;;;5063432;28;20447;-78
2022/04/29 10:41:17;;;;;;;3.10;2.60;;;18.70;28.80;;;;;;5063503;28;20695;-76
2022/04/29 10:43:47;;;;;;;3.40;3.10;;;18.70;27.30;;;;;;5056432;28;20458;-77
2022/04/29 10:46:20;;;;;;;3.73;3.30;;;18.60;27.40;;;;;;5066441;28;20458;-78
2022/04/29 10:48:49;;;;;;;1.93;1.83;;;18.70;27.50;;;;;;5067520;28;20474;-77
2022/04/29 10:51:19;;;;;;;5.23;2.20;;;18.80;30.00;;;;;;5062834;28;20467;-78
2022/04/29 10:53:49;;;;;;;2.73;2.40;;;19.00;34.90;;;;;;5063648;28;20454;-77
2022/04/29 10:56:37;;;;;;;2.93;2.50;;;19.10;36.80;;;;;;5066044;28;20521;-77
2022/04/29 10:59:19;;;;;;;3.10;2.00;;;19.30;35.30;;;;;;5067923;28;20446;-77
2022/04/29 11:02:13;;;;;;;2.53;2.10;;;19.40;38.80;;;;;;5067384;28;20458;-77
2022/04/29 11:04:46;;;;;;;1.93;1.80;;;19.40;35.80;;;;;;5063466;28;20435;-75
2022/04/29 11:07:34;;;;;;;2.13;1.70;;;19.50;35.30;;;;;;5065838;28;20482;-78
2022/04/29 11:10:03;;;;;;;2.03;1.87;;;19.50;37.40;;;;;;5060336;28;20558;-76
2022/04/29 11:12:32;;;;;;;1.90;1.80;;;19.60;37.70;;;;;;5067592;28;20482;-76
2022/04/29 11:15:15;;;;;;;1.50;1.40;;;19.70;38.40;;;;;;5059764;28;21117;-75
2022/04/29 11:17:44;;;;;;;1.80;1.70;;;19.70;34.20;;;;;;5066637;28;20529;-76
2022/04/29 11:20:14;;;;;;;1.93;1.83;;;19.70;36.20;;;;;;5059176;28;20462;-76
2022/04/29 11:25:51;;;;;;;2.73;1.70;;;19.60;34.00;;;;;;5058944;28;20848;-75
2022/04/29 11:28:22;;;;;;;1.70;1.60;;;19.70;37.90;;;;;;5062877;28;20506;-76
2022/04/29 11:30:58;;;;;;;1.70;1.60;;;19.70;38.90;;;;;;5065381;28;20493;-76
2022/04/29 11:33:28;;;;;;;2.60;1.93;;;19.80;37.20;;;;;;5067246;28;20557;-76
2022/04/29 11:36:05;;;;;;;2.27;2.00;;;19.90;38.40;;;;;;5056981;28;20455;-76
2022/04/29 11:38:41;;;;;;;1.83;1.73;;;19.90;37.10;;;;;;5061714;28;21193;-77
2022/04/29 11:41:16;;;;;;;2.17;2.00;;;19.80;35.20;;;;;;5057985;28;20474;-79
2022/04/29 11:43:46;;;;;;;3.00;2.22;;;19.80;35.40;;;;;;5063780;28;20441;-76
2022/04/29 11:46:15;;;;;;;2.03;1.93;;;19.90;34.70;;;;;;5067042;28;20204;-76
2022/04/29 11:48:53;;;;;;;1.80;1.70;;;19.90;36.90;;;;;;5062405;28;20486;-77
2022/04/29 11:51:22;;;;;;;1.70;1.50;;;19.80;35.50;;;;;;5064122;28;20449;-75
2022/04/29 11:53:57;;;;;;;1.97;1.80;;;19.90;36.50;;;;;;5069097;28;20470;-76
2022/04/29 11:56:33;;;;;;;1.93;1.50;;;19.90;37.40;;;;;;5063768;28;20533;-75
2022/04/29 11:59:03;;;;;;;1.90;1.80;;;19.90;37.60;;;;;;5063730;28;20863;-78
2022/04/29 12:01:32;;;;;;;4.03;2.30;;;19.90;38.00;;;;;;5065066;28;20949;-77
2022/04/29 12:04:01;;;;;;;2.40;1.87;;;19.90;37.80;;;;;;5062580;28;20465;-77
2022/04/29 12:06:30;;;;;;;3.13;2.17;;;19.90;36.20;;;;;;5062991;28;21138;-78
2022/04/29 12:08:58;;;;;;;2.60;1.80;;;20.00;38.00;;;;;;5062247;28;20460;-78
2022/04/29 12:11:28;;;;;;;2.17;1.97;;;20.00;34.60;;;;;;5066289;28;20458;-77
2022/04/29 12:13:57;;;;;;;3.27;2.90;;;19.90;32.50;;;;;;5055932;28;20472;-77
2022/04/29 12:16:25;;;;;;;3.43;3.13;;;19.90;49.70;;;;;;5061935;28;20472;-77
2022/04/29 12:18:53;;;;;;;2.17;1.70;;;19.80;34.10;;;;;;5066247;28;20552;-76
2022/04/29 12:21:24;;;;;;;1.87;1.77;;;19.90;34.30;;;;;;5060852;28;20452;-77
2022/04/29 12:23:53;;;;;;;2.40;2.20;;;19.80;35.60;;;;;;5080941;28;20844;-77
2022/04/29 12:26:21;;;;;;;3.20;1.93;;;19.90;38.70;;;;;;5065902;28;20455;-77
2022/04/29 12:28:57;;;;;;;2.70;2.50;;;20.00;37.60;;;;;;5066047;28;21000;-77
2022/04/29 12:37:06;;;;;;;2.70;1.70;;;19.90;35.70;;;;;;5065716;28;20446;-77
2022/04/29 12:39:37;;;;;;;2.33;2.13;;;20.00;35.70;;;;;;5065514;28;20478;-76
2022/04/29 12:42:07;;;;;;;2.83;2.00;;;20.00;36.10;;;;;;5060921;28;20455;-77
2022/04/29 12:45:07;;;;;;;2.60;2.40;;;19.80;37.00;;;;;;5060165;28;20477;-76
2022/04/29 12:47:38;;;;;;;2.60;2.23;;;20.20;38.10;;;;;;5060934;28;20458;-75
2022/04/29 12:50:25;;;;;;;2.10;1.90;;;20.30;39.70;;;;;;5062051;28;20506;-76
2022/04/29 12:52:59;;;;;;;2.83;2.63;;;20.40;39.40;;;;;;5056285;28;20459;-76
2022/04/29 12:55:28;;;;;;;2.30;2.10;;;20.40;37.70;;;;;;5063468;28;20465;-75
2022/04/29 12:58:04;;;;;;;2.37;2.27;;;20.40;41.00;;;;;;5065779;28;20458;-75
2022/04/29 13:00:37;;;;;;;2.30;1.80;;;20.50;41.90;;;;;;5064828;28;20556;-76
2022/04/29 13:03:07;;;;;;;2.23;1.90;;;20.50;43.20;;;;;;5067712;28;20445;-75
2022/04/29 13:05:37;;;;;;;2.40;2.20;;;20.60;42.70;;;;;;5056631;28;20490;-76
2022/04/29 13:08:09;;;;;;;3.50;2.57;;;20.60;42.80;;;;;;5063073;28;20499;-75
2022/04/29 13:10:45;;;;;;;3.60;2.03;;;20.50;41.50;;;;;;5066298;28;21012;-75
2022/04/29 13:13:14;;;;;;;2.10;2.00;;;20.60;43.00;;;;;;5063326;28;20635;-76
2022/04/29 13:15:43;;;;;;;2.83;2.63;;;20.60;41.20;;;;;;5065585;28;20439;-76
2022/04/29 13:18:16;;;;;;;2.60;1.93;;;20.50;37.30;;;;;;5052988;28;20466;-75
2022/04/29 13:20:45;;;;;;;2.30;2.10;;;20.50;37.80;;;;;;5059163;28;21255;-75
2022/04/29 13:23:15;;;;;;;2.10;2.00;;;20.40;54.40;;;;;;5058098;28;20455;-75
2022/04/29 13:25:45;;;;;;;1.97;1.87;;;20.50;38.90;;;;;;5062999;28;20485;-76
2022/04/29 13:28:13;;;;;;;2.60;2.40;;;20.40;37.10;;;;;;5064626;28;20492;-76
2022/04/29 13:30:42;;;;;;;3.20;2.90;;;20.50;38.20;;;;;;5065135;28;20485;-76
2022/04/29 13:33:10;;;;;;;2.30;2.10;;;20.40;36.10;;;;;;5065531;28;20455;-76
2022/04/29 13:35:39;;;;;;;2.20;2.10;;;20.40;36.60;;;;;;5060953;28;20462;-75